createdAt,value
2018-12-21T00:00:02.996Z,1
2018-12-21T00:05:02.561Z,1
2018-12-21T00:10:03.113Z,1
2018-12-21T00:15:02.556Z,1
2018-12-21T00:20:02.985Z,1
2018-12-21T00:25:02.459Z,1
2018-12-21T00:30:02.937Z,1
2018-12-21T00:35:02.677Z,1
2018-12-21T00:40:03.289Z,1
2018-12-21T00:45:02.749Z,1
2018-12-21T00:50:03.218Z,1
2018-12-21T00:55:02.696Z,1
2018-12-21T01:00:03.147Z,1
2018-12-21T01:05:03.305Z,1
2018-12-21T01:10:02.888Z,1
2018-12-21T01:15:03.347Z,1
2018-12-21T01:20:02.773Z,1
2018-12-21T01:25:03.401Z,1
2018-12-21T01:30:02.862Z,1
2018-12-21T01:35:02.535Z,1
2018-12-21T01:40:03.059Z,1
2018-12-21T01:45:02.544Z,0
2018-12-21T01:50:03.191Z,1
2018-12-21T01:55:02.746Z,1
2018-12-21T02:00:03.193Z,1
2018-12-21T02:05:02.756Z,1
2018-12-21T02:10:03.339Z,1
2018-12-21T02:15:02.820Z,1
2018-12-21T02:20:03.356Z,1
2018-12-21T02:25:02.722Z,1
2018-12-21T02:30:03.169Z,1
2018-12-21T02:35:02.978Z,0
2018-12-21T02:40:02.576Z,1
2018-12-21T02:45:02.987Z,1
2018-12-21T02:50:02.526Z,0
2018-12-21T02:55:03.033Z,1
2018-12-21T03:00:02.389Z,1
2018-12-21T03:05:03.009Z,1
2018-12-21T03:10:02.670Z,0
2018-12-21T03:15:03.303Z,1
2018-12-21T03:20:02.772Z,0
2018-12-21T03:25:03.443Z,0
2018-12-21T03:30:02.925Z,0
2018-12-21T03:35:02.583Z,0
2018-12-21T03:40:03.206Z,0
2018-12-21T03:45:02.616Z,0
2018-12-21T03:50:03.000Z,1
2018-12-21T03:55:02.503Z,0
2018-12-21T04:00:03.186Z,0
2018-12-21T04:05:02.749Z,0
2018-12-21T04:10:03.221Z,0
2018-12-21T04:15:02.705Z,1
2018-12-21T04:20:03.387Z,1
2018-12-21T04:25:02.872Z,1
2018-12-21T04:30:02.412Z,1
2018-12-21T04:35:03.035Z,1
2018-12-21T04:40:02.784Z,1
2018-12-21T04:45:03.280Z,1
2018-12-21T04:50:02.740Z,1
2018-12-21T04:55:03.232Z,1
2018-12-21T05:00:02.964Z,1
2018-12-21T05:05:02.470Z,1
2018-12-21T05:10:02.947Z,1
2018-12-21T05:15:02.432Z,1
2018-12-21T05:20:02.917Z,1
2018-12-21T05:25:02.382Z,1
2018-12-21T05:30:02.848Z,1
2018-12-21T05:35:02.738Z,1
2018-12-21T05:40:03.322Z,1
2018-12-21T05:45:02.856Z,1
2018-12-21T05:50:03.372Z,1
2018-12-21T05:55:02.879Z,1
2018-12-21T06:00:03.341Z,1
2018-12-21T06:05:02.851Z,1
2018-12-21T06:10:02.376Z,1
2018-12-21T06:15:02.823Z,1
2018-12-21T06:20:02.416Z,1
2018-12-21T06:25:02.874Z,1
2018-12-21T06:30:02.398Z,1
2018-12-21T06:35:02.876Z,1
2018-12-21T06:40:02.363Z,1
2018-12-21T06:45:02.878Z,1
2018-12-21T06:50:03.365Z,1
2018-12-21T06:55:02.785Z,1
2018-12-21T07:00:03.259Z,1
2018-12-21T07:05:03.024Z,1
2018-12-21T07:10:02.600Z,1
2018-12-21T07:15:03.026Z,2
2018-12-21T07:20:02.544Z,2
2018-12-21T07:25:03.111Z,4
2018-12-21T07:30:02.635Z,5
2018-12-21T07:35:03.167Z,10
2018-12-21T07:40:02.767Z,17
2018-12-21T07:45:03.190Z,18
2018-12-21T07:50:02.606Z,28
2018-12-21T07:55:03.150Z,35
2018-12-21T08:00:02.869Z,43
2018-12-21T08:05:02.425Z,54
2018-12-21T08:10:03.090Z,58
2018-12-21T08:15:02.667Z,54
2018-12-21T08:20:03.200Z,63
2018-12-21T08:25:02.784Z,75
2018-12-21T08:30:03.262Z,73
2018-12-21T08:35:02.928Z,53
2018-12-21T08:40:02.525Z,55
2018-12-21T08:45:03.097Z,62
2018-12-21T08:50:02.785Z,284
2018-12-21T08:55:03.374Z,368
2018-12-21T09:00:02.823Z,375
2018-12-21T09:05:03.306Z,324
2018-12-21T09:10:02.839Z,495
2018-12-21T09:15:03.346Z,515
2018-12-21T09:20:02.840Z,553
2018-12-21T09:25:02.377Z,621
2018-12-21T09:30:02.971Z,694
2018-12-21T09:35:02.521Z,561
2018-12-21T09:40:03.042Z,649
2018-12-21T09:45:02.691Z,459
2018-12-21T09:50:02.434Z,379
2018-12-21T09:55:02.974Z,433
2018-12-21T10:00:02.564Z,383
2018-12-21T10:05:03.058Z,440
2018-12-21T10:10:02.601Z,505
2018-12-21T10:15:03.106Z,541
2018-12-21T10:20:02.546Z,777
2018-12-21T10:25:03.115Z,1000
2018-12-21T10:30:02.617Z,983
2018-12-21T10:35:03.164Z,955
2018-12-21T10:40:02.691Z,877
2018-12-21T10:45:03.106Z,876
2018-12-21T10:50:02.547Z,1000
2018-12-21T10:55:03.009Z,1000
2018-12-21T11:00:02.511Z,1000
2018-12-21T11:05:03.131Z,820
2018-12-21T11:10:02.725Z,1000
2018-12-21T11:15:03.228Z,1000
2018-12-21T11:20:03.012Z,1000
2018-12-21T11:25:02.677Z,1000
2018-12-21T11:30:03.237Z,843
2018-12-21T11:35:02.788Z,1000
2018-12-21T11:40:03.366Z,1000
2018-12-21T11:45:02.846Z,865
2018-12-21T11:50:03.422Z,865
2018-12-21T11:55:03.025Z,889
2018-12-21T12:00:02.574Z,1000
2018-12-21T12:05:03.326Z,544
2018-12-21T12:10:02.810Z,685
2018-12-21T12:15:02.370Z,760
2018-12-21T12:20:02.887Z,786
2018-12-21T12:25:03.332Z,1000
2018-12-21T12:30:02.777Z,1000
2018-12-21T12:35:02.468Z,715
2018-12-21T12:40:02.939Z,497
2018-12-21T12:45:02.525Z,707
2018-12-21T12:50:03.174Z,887
2018-12-21T12:57:02.658Z,1000
2018-12-21T13:00:03.055Z,939
2018-12-21T13:05:02.695Z,991
2018-12-21T13:10:03.442Z,1000
2018-12-21T13:15:03.056Z,785
2018-12-21T13:20:02.685Z,1000
2018-12-21T13:25:11.947Z,1000
2018-12-21T13:30:03.409Z,943
2018-12-21T13:35:02.886Z,995
2018-12-21T13:40:02.426Z,968
2018-12-21T13:45:02.976Z,631
2018-12-21T13:50:02.593Z,667
2018-12-21T13:55:03.098Z,657
2018-12-21T14:00:02.543Z,694
2018-12-21T14:05:03.100Z,656
2018-12-21T14:10:02.648Z,632
2018-12-21T14:15:03.177Z,578
2018-12-21T14:20:02.647Z,428
2018-12-21T14:25:03.213Z,329
2018-12-21T14:30:02.675Z,272
2018-12-21T14:35:02.406Z,313
2018-12-21T14:40:02.914Z,212
2018-12-21T14:45:02.592Z,87
2018-12-21T14:50:03.093Z,102
2018-12-21T14:55:02.695Z,71
2018-12-21T15:00:03.193Z,62
2018-12-21T15:05:02.755Z,51
2018-12-21T15:10:03.225Z,47
2018-12-21T15:15:02.726Z,51
2018-12-21T15:20:03.249Z,46
2018-12-21T15:25:02.737Z,40
2018-12-21T15:30:03.172Z,39
2018-12-21T15:35:02.725Z,12
2018-12-21T15:40:02.540Z,6
2018-12-21T15:45:02.977Z,6
2018-12-21T15:50:02.450Z,5
2018-12-21T15:55:02.931Z,2
2018-12-21T16:00:02.454Z,2
2018-12-21T16:05:03.222Z,2
2018-12-21T16:10:02.831Z,1
2018-12-21T16:15:03.358Z,2
2018-12-21T16:20:02.899Z,2
2018-12-21T16:25:02.439Z,1
2018-12-21T16:30:02.962Z,1
2018-12-21T16:35:02.484Z,1
2018-12-21T16:40:03.048Z,1
2018-12-21T16:45:02.507Z,1
2018-12-21T16:50:03.000Z,1
2018-12-21T16:55:02.482Z,1
2018-12-21T17:00:02.939Z,1
2018-12-21T17:05:02.635Z,1
2018-12-21T17:10:03.273Z,2
2018-12-21T17:15:02.786Z,1
2018-12-21T17:20:04.762Z,1
2018-12-21T17:25:03.197Z,2
2018-12-21T17:30:02.661Z,2
2018-12-21T17:35:03.208Z,1
2018-12-21T17:40:02.711Z,2
2018-12-21T17:45:03.144Z,1
2018-12-21T17:50:02.616Z,1
2018-12-21T17:55:03.122Z,1
2018-12-21T18:00:02.748Z,1
2018-12-21T18:05:03.380Z,1
2018-12-21T18:10:02.930Z,1
2018-12-21T18:15:02.607Z,1
2018-12-21T18:20:03.076Z,1
2018-12-21T18:25:02.783Z,1
2018-12-21T18:30:03.422Z,1
2018-12-21T18:35:03.029Z,1
2018-12-21T18:40:02.594Z,1
2018-12-21T18:45:03.186Z,1
2018-12-21T18:50:02.563Z,1
2018-12-21T18:55:03.131Z,1
2018-12-21T19:00:02.539Z,1
2018-12-21T19:05:03.175Z,1
2018-12-21T19:10:04.170Z,1
2018-12-21T19:15:02.679Z,1
2018-12-21T19:20:03.270Z,1
2018-12-21T19:25:02.933Z,1
2018-12-21T19:30:02.434Z,1
2018-12-21T19:35:02.970Z,1
2018-12-21T19:40:02.547Z,1
2018-12-21T19:45:03.118Z,1
2018-12-21T19:50:02.815Z,1
2018-12-21T19:55:02.481Z,1
2018-12-21T20:00:03.018Z,1
2018-12-21T20:05:02.896Z,1
2018-12-21T20:10:02.793Z,1
2018-12-21T20:15:03.287Z,1
2018-12-21T20:20:02.769Z,1
2018-12-21T20:25:02.594Z,1
2018-12-21T20:30:03.043Z,1
2018-12-21T20:35:02.541Z,2
2018-12-21T20:40:03.107Z,1
2018-12-21T20:45:02.568Z,1
2018-12-21T20:50:03.066Z,1
2018-12-21T20:55:02.588Z,1
2018-12-21T21:00:03.259Z,1
2018-12-21T21:05:02.747Z,1
2018-12-21T21:10:03.314Z,1
2018-12-21T21:15:02.773Z,1
2018-12-21T21:20:03.314Z,1
2018-12-21T21:25:02.806Z,1
2018-12-21T21:30:02.409Z,1
2018-12-21T21:35:02.975Z,1
2018-12-21T21:40:02.523Z,1
2018-12-21T21:45:03.634Z,1
2018-12-21T21:50:03.111Z,1
2018-12-21T21:55:03.016Z,1
2018-12-21T22:00:02.505Z,1
2018-12-21T22:05:03.036Z,1
2018-12-21T22:10:02.571Z,1
2018-12-21T22:15:03.073Z,1
2018-12-21T22:20:02.577Z,1
2018-12-21T22:25:03.033Z,1
2018-12-21T22:30:02.430Z,1
2018-12-21T22:35:03.024Z,1
2018-12-21T22:40:02.584Z,1
2018-12-21T22:45:03.601Z,1
2018-12-21T22:50:02.957Z,1
2018-12-21T22:55:02.435Z,1
2018-12-21T23:00:02.875Z,1
2018-12-21T23:05:03.170Z,1
2018-12-21T23:10:02.713Z,1
2018-12-21T23:15:03.090Z,1
2018-12-21T23:20:02.823Z,1
2018-12-21T23:25:03.342Z,1
2018-12-21T23:30:02.790Z,1
2018-12-21T23:35:03.588Z,1
2018-12-21T23:40:03.063Z,1
2018-12-21T23:45:02.540Z,1
2018-12-21T23:50:03.006Z,1
2018-12-21T23:55:02.467Z,1
